createdAt,value
2023-01-21T00:00:10.431Z,100804.88
2023-01-21T00:05:11.904Z,100804.91
2023-01-21T00:10:13.374Z,100807.41
2023-01-21T00:15:14.832Z,100803.97
2023-01-21T00:20:16.884Z,100805.53
2023-01-21T00:25:18.623Z,100803.78
2023-01-21T00:30:20.299Z,100816.97
2023-01-21T00:35:21.737Z,100809.31
2023-01-21T00:40:23.219Z,100816.66
2023-01-21T00:45:24.698Z,100812.44
2023-01-21T00:50:26.098Z,100824.97
2023-01-21T00:55:27.491Z,100832.41
2023-01-21T01:00:28.986Z,100832.38
2023-01-21T01:05:30.471Z,100830.75
2023-01-21T01:10:31.876Z,100836.66
2023-01-21T01:15:33.307Z,100845.88
2023-01-21T01:20:34.726Z,100853.38
2023-01-21T01:25:37.963Z,100853.38
2023-01-21T01:30:39.462Z,100860.19
2023-01-21T01:35:42.015Z,100864.47
2023-01-21T01:40:43.663Z,100862.78
2023-01-21T01:45:45.269Z,100872.00
2023-01-21T01:50:48.076Z,100877.09
2023-01-21T01:55:49.919Z,100881.28
2023-01-21T02:00:51.474Z,100882.09
2023-01-21T02:05:54.052Z,100883.78
2023-01-21T02:10:56.525Z,100887.94
2023-01-21T02:16:21.614Z,100894.63
2023-01-21T02:21:49.959Z,100893.78
2023-01-21T02:27:09.880Z,100908.69
2023-01-21T02:32:32.957Z,100911.06
2023-01-21T02:38:06.894Z,100910.06
2023-01-21T02:43:43.386Z,100911.53
2023-01-21T02:48:56.583Z,100908.00
2023-01-21T02:53:58.020Z,100922.97
2023-01-21T02:59:04.628Z,100924.53
2023-01-21T03:04:32.711Z,100919.38
2023-01-21T03:09:35.363Z,100934.97
2023-01-21T03:15:02.277Z,100946.50
2023-01-21T03:20:25.661Z,100954.59
2023-01-21T03:25:31.515Z,100950.22
2023-01-21T03:30:35.572Z,100953.13
2023-01-21T03:35:42.992Z,100962.94
2023-01-21T03:40:56.515Z,100961.13
2023-01-21T03:46:01.268Z,100976.00
2023-01-21T03:51:10.047Z,100961.72
2023-01-21T03:56:11.557Z,100962.47
2023-01-21T04:01:13.098Z,100986.47
2023-01-21T04:06:17.187Z,100994.75
2023-01-21T04:11:18.888Z,100994.56
2023-01-21T04:16:20.412Z,101007.06
2023-01-21T04:21:21.968Z,101005.28
2023-01-21T04:26:23.533Z,101013.47
2023-01-21T04:31:25.143Z,101011.03
2023-01-21T04:36:26.652Z,101027.69
2023-01-21T04:41:28.212Z,101031.84
2023-01-21T04:46:29.711Z,101038.63
2023-01-21T04:51:31.248Z,101049.63
2023-01-21T04:56:32.664Z,101048.84
2023-01-21T05:01:34.361Z,101058.06
2023-01-21T05:06:35.809Z,101054.53
2023-01-21T05:11:37.497Z,101057.72
2023-01-21T05:16:39.040Z,101057.56
2023-01-21T05:21:41.722Z,101058.31
2023-01-21T05:26:44.894Z,101066.44
2023-01-21T05:31:46.532Z,101064.50
2023-01-21T05:36:48.062Z,101076.03
2023-01-21T05:41:50.153Z,101079.34
2023-01-21T05:46:53.002Z,101084.44
2023-01-21T05:51:54.957Z,101098.75
2023-01-21T05:56:56.628Z,101102.03
2023-01-21T06:02:01.048Z,101113.63
2023-01-21T06:07:02.515Z,101128.44
2023-01-21T06:12:04.144Z,101129.00
2023-01-21T06:17:05.940Z,101139.69
2023-01-21T06:22:07.423Z,101146.16
2023-01-21T06:27:08.840Z,101150.81
2023-01-21T06:32:10.487Z,101158.84
2023-01-21T06:37:12.041Z,101175.31
2023-01-21T06:42:13.601Z,101170.97
2023-01-21T06:47:15.687Z,101185.63
2023-01-21T06:52:17.603Z,101193.53
2023-01-21T06:57:22.360Z,101209.16
2023-01-21T07:02:23.812Z,101219.66
2023-01-21T07:07:25.411Z,101220.22
2023-01-21T07:12:27.036Z,101227.72
2023-01-21T07:17:28.544Z,101230.22
2023-01-21T07:22:30.003Z,101244.28
2023-01-21T07:27:31.833Z,101256.69
2023-01-21T07:32:33.397Z,101258.47
2023-01-21T07:37:34.889Z,101279.69
2023-01-21T07:42:36.435Z,101269.31
2023-01-21T07:47:37.922Z,101277.94
2023-01-21T07:52:40.044Z,101276.13
2023-01-21T07:57:41.496Z,101285.59
2023-01-21T08:02:43.016Z,101288.22
2023-01-21T08:07:44.610Z,101297.72
2023-01-21T08:12:46.155Z,101300.75
2023-01-21T08:17:48.992Z,101304.88
2023-01-21T08:22:50.963Z,101303.34
2023-01-21T08:27:54.207Z,101306.25
2023-01-21T08:32:55.966Z,101314.56
2023-01-21T08:37:57.579Z,101323.06
2023-01-21T08:43:00.153Z,101320.41
2023-01-21T08:48:04.038Z,101335.22
2023-01-21T08:53:05.559Z,101340.19
2023-01-21T08:58:06.994Z,101342.59
2023-01-21T09:03:08.824Z,101350.59
2023-01-21T09:08:10.403Z,101359.50
2023-01-21T09:13:12.853Z,101358.19
2023-01-21T09:18:14.736Z,101359.31
2023-01-21T09:23:25.621Z,101354.19
2023-01-21T09:28:32.189Z,101363.38
2023-01-21T09:33:37.873Z,101365.31
2023-01-21T09:38:42.595Z,101378.13
2023-01-21T09:43:49.052Z,101380.69
2023-01-21T09:48:51.740Z,101381.63
2023-01-21T09:53:57.986Z,101388.44
2023-01-21T09:59:22.469Z,101383.00
2023-01-21T10:04:46.172Z,101381.84
2023-01-21T10:10:14.710Z,101383.09
2023-01-21T10:15:41.396Z,101379.41
2023-01-21T10:20:58.950Z,101378.28
2023-01-21T10:26:07.131Z,101380.28
2023-01-21T10:31:28.668Z,101383.66
2023-01-21T10:36:49.484Z,101385.59
2023-01-21T10:42:17.530Z,101369.38
2023-01-21T10:47:44.927Z,101363.03
2023-01-21T10:52:55.295Z,101361.41
2023-01-21T10:58:26.111Z,101364.13
2023-01-21T11:03:46.070Z,101364.97
2023-01-21T11:08:59.852Z,101363.84
2023-01-21T11:14:02.092Z,101363.47
2023-01-21T11:19:06.846Z,101359.25
2023-01-21T11:24:23.546Z,101346.81
2023-01-21T11:29:26.209Z,101343.75
2023-01-21T11:34:28.524Z,101358.06
2023-01-21T11:39:35.468Z,101355.53
2023-01-21T11:44:54.311Z,101361.22
2023-01-21T11:50:03.346Z,101358.59
2023-01-21T11:55:17.674Z,101364.38
2023-01-21T12:00:22.796Z,101356.00
2023-01-21T12:05:37.328Z,101356.31
2023-01-21T12:10:44.622Z,101349.28
2023-01-21T12:15:52.436Z,101349.28
2023-01-21T12:20:57.216Z,101344.94
2023-01-21T12:26:05.329Z,101345.41
2023-01-21T12:31:23.853Z,101346.00
2023-01-21T12:36:33.509Z,101341.22
2023-01-21T12:41:40.437Z,101346.81
2023-01-21T12:46:47.629Z,101343.25
2023-01-21T12:52:14.819Z,101340.53
2023-01-21T12:57:27.825Z,101340.31
2023-01-21T13:02:53.109Z,101341.97
2023-01-21T13:08:03.542Z,101349.66
2023-01-21T13:13:14.174Z,101352.38
2023-01-21T13:18:33.980Z,101347.53
2023-01-21T13:23:48.297Z,101354.19
2023-01-21T13:29:16.421Z,101357.66
2023-01-21T13:34:39.995Z,101357.66
2023-01-21T13:39:55.096Z,101356.75
2023-01-21T13:45:15.937Z,101360.13
2023-01-21T13:50:59.649Z,101365.88
2023-01-21T13:56:13.930Z,101360.09
2023-01-21T14:01:23.561Z,101372.69
2023-01-21T14:06:40.628Z,101372.53
2023-01-21T14:11:50.005Z,101379.19
2023-01-21T14:16:52.874Z,101383.53
2023-01-21T14:22:16.692Z,101377.63
2023-01-21T14:27:27.785Z,101383.41
2023-01-21T14:32:38.104Z,101381.97
2023-01-21T14:37:40.457Z,101387.03
2023-01-21T14:42:49.275Z,101395.31
2023-01-21T14:47:55.843Z,101395.41
2023-01-21T14:52:58.000Z,101403.63
2023-01-21T14:58:01.856Z,101403.63
2023-01-21T15:03:03.437Z,101409.41
2023-01-21T15:08:23.893Z,101415.91
2023-01-21T15:13:32.929Z,101401.66
2023-01-21T15:18:38.710Z,101407.44
2023-01-21T15:23:41.542Z,101413.22
2023-01-21T15:28:44.883Z,101414.81
2023-01-21T15:33:58.946Z,101424.03
2023-01-21T15:39:29.034Z,101433.97
2023-01-21T15:44:47.501Z,101431.56
2023-01-21T15:50:00.164Z,101421.44
2023-01-21T15:55:32.611Z,101431.50
2023-01-21T16:00:43.112Z,101426.53
2023-01-21T16:05:50.568Z,101439.94
2023-01-21T16:11:01.598Z,101445.69
2023-01-21T16:16:12.729Z,101450.66
2023-01-21T16:21:16.079Z,101447.22
2023-01-21T16:26:26.220Z,101453.00
2023-01-21T16:31:27.869Z,101456.28
2023-01-21T16:36:38.236Z,101457.19
2023-01-21T16:41:39.785Z,101456.63
2023-01-21T16:46:41.775Z,101459.84
2023-01-21T16:52:18.929Z,101469.72
2023-01-21T16:57:31.495Z,101470.53
2023-01-21T17:02:34.118Z,101469.81
2023-01-21T17:07:43.623Z,101479.69
2023-01-21T17:12:59.229Z,101480.53
2023-01-21T17:18:01.242Z,101485.63
2023-01-21T17:23:08.059Z,101484.16
2023-01-21T17:28:29.369Z,101479.19
2023-01-21T17:33:30.940Z,101486.81
2023-01-21T17:38:38.926Z,101490.13
2023-01-21T17:43:47.823Z,101493.50
2023-01-21T17:48:53.818Z,101505.34
2023-01-21T17:54:02.093Z,101504.53
2023-01-21T17:59:21.620Z,101504.63
2023-01-21T18:04:23.192Z,101511.50
2023-01-21T18:09:25.659Z,101515.66
2023-01-21T18:14:27.458Z,101506.66
2023-01-21T18:19:31.204Z,101503.41
2023-01-21T18:24:33.009Z,101509.25
2023-01-21T18:29:34.561Z,101505.91
2023-01-21T18:34:36.300Z,101498.63
2023-01-21T18:39:37.978Z,101490.34
2023-01-21T18:44:39.775Z,101494.59
2023-01-21T18:49:41.475Z,101497.94
2023-01-21T18:54:43.108Z,101504.72
2023-01-21T18:59:44.694Z,101499.78
2023-01-21T19:04:47.372Z,101492.09
2023-01-21T19:09:51.214Z,101494.59
2023-01-21T19:14:53.265Z,101486.22
2023-01-21T19:19:55.470Z,101486.34
2023-01-21T19:24:56.955Z,101487.34
2023-01-21T19:30:01.431Z,101480.63
2023-01-21T19:35:02.932Z,101473.03
2023-01-21T19:40:13.443Z,101476.94
2023-01-21T19:45:20.110Z,101475.06
2023-01-21T19:50:24.503Z,101475.00
2023-01-21T19:55:26.134Z,101484.00
2023-01-21T20:00:33.107Z,101478.19
2023-01-21T20:05:34.801Z,101484.09
2023-01-21T20:10:36.584Z,101484.72
2023-01-21T20:15:38.191Z,101494.75
2023-01-21T20:20:39.733Z,101498.97
2023-01-21T20:25:43.616Z,101498.13
2023-01-21T20:30:45.760Z,101499.81
2023-01-21T20:35:49.300Z,101491.34
2023-01-21T20:40:50.834Z,101494.59
2023-01-21T20:45:53.410Z,101492.06
2023-01-21T20:50:55.201Z,101494.53
2023-01-21T20:56:00.379Z,101497.06
2023-01-21T21:01:01.863Z,101497.88
2023-01-21T21:06:10.868Z,101496.16
2023-01-21T21:11:14.754Z,101496.25
2023-01-21T21:16:26.247Z,101492.09
2023-01-21T21:21:27.790Z,101490.34
2023-01-21T21:26:29.554Z,101487.78
2023-01-21T21:31:32.697Z,101481.75
2023-01-21T21:36:34.260Z,101483.34
2023-01-21T21:41:54.604Z,101475.94
2023-01-21T21:47:14.656Z,101472.63
2023-01-21T21:52:17.779Z,101475.16
2023-01-21T21:57:19.240Z,101472.66
2023-01-21T22:02:21.061Z,101470.91
2023-01-21T22:07:22.636Z,101468.41
2023-01-21T22:12:24.224Z,101463.38
2023-01-21T22:17:25.866Z,101462.63
2023-01-21T22:22:27.534Z,101463.53
2023-01-21T22:27:29.839Z,101464.28
2023-01-21T22:32:31.315Z,101449.97
2023-01-21T22:37:32.824Z,101449.97
2023-01-21T22:42:34.435Z,101451.72
2023-01-21T22:47:35.959Z,101439.34
2023-01-21T22:52:37.500Z,101426.78
2023-01-21T22:57:38.928Z,101425.97
2023-01-21T23:02:40.324Z,101420.25
2023-01-21T23:07:41.889Z,101413.63
2023-01-21T23:12:43.331Z,101414.66
2023-01-21T23:17:44.844Z,101415.63
2023-01-21T23:22:46.309Z,101419.84
2023-01-21T23:27:47.783Z,101406.47
2023-01-21T23:32:49.204Z,101397.16
2023-01-21T23:37:50.681Z,101392.03
2023-01-21T23:42:52.077Z,101395.47
2023-01-21T23:47:54.859Z,101386.31
2023-01-21T23:52:56.522Z,101386.25
2023-01-21T23:57:57.963Z,101376.94
